sensor_id;sensor_type;location;lat;lon;timestamp;pressure;altitude;pressure_sealevel;temperature;humidity
24558;BME280;12726;49.148;8.582;2023-04-29T00:00:11;100059.00;;;13.24;100.00
24558;BME280;12726;49.148;8.582;2023-04-29T00:02:56;100058.91;;;13.19;100.00
24558;BME280;12726;49.148;8.582;2023-04-29T00:05:42;100056.09;;;13.14;100.00
24558;BME280;12726;49.148;8.582;2023-04-29T00:08:27;100048.88;;;13.08;100.00
24558;BME280;12726;49.148;8.582;2023-04-29T00:11:13;100050.66;;;13.02;100.00
24558;BME280;12726;49.148;8.582;2023-04-29T00:13:59;100047.72;;;13.04;100.00
24558;BME280;12726;49.148;8.582;2023-04-29T00:16:45;100044.91;;;12.99;100.00
24558;BME280;12726;49.148;8.582;2023-04-29T00:19:30;100048.19;;;13.01;100.00
24558;BME280;12726;49.148;8.582;2023-04-29T00:22:16;100050.09;;;13.00;100.00
24558;BME280;12726;49.148;8.582;2023-04-29T00:25:01;100043.72;;;12.94;100.00
24558;BME280;12726;49.148;8.582;2023-04-29T00:27:47;100049.25;;;12.88;100.00
24558;BME280;12726;49.148;8.582;2023-04-29T00:30:33;100042.09;;;12.82;100.00
24558;BME280;12726;49.148;8.582;2023-04-29T00:33:19;100040.94;;;12.78;100.00
24558;BME280;12726;49.148;8.582;2023-04-29T00:36:04;100057.50;;;12.70;100.00
24558;BME280;12726;49.148;8.582;2023-04-29T00:38:50;100049.25;;;12.65;100.00
24558;BME280;12726;49.148;8.582;2023-04-29T00:41:35;100051.72;;;12.66;100.00
24558;BME280;12726;49.148;8.582;2023-04-29T00:44:20;100043.63;;;12.54;100.00
24558;BME280;12726;49.148;8.582;2023-04-29T00:47:07;100052.06;;;12.58;100.00
24558;BME280;12726;49.148;8.582;2023-04-29T00:49:54;100055.50;;;12.53;100.00
24558;BME280;12726;49.148;8.582;2023-04-29T00:52:39;100058.75;;;12.44;100.00
24558;BME280;12726;49.148;8.582;2023-04-29T00:55:26;100053.94;;;12.34;100.00
24558;BME280;12726;49.148;8.582;2023-04-29T00:58:12;100057.09;;;12.31;100.00
24558;BME280;12726;49.148;8.582;2023-04-29T01:00:58;100065.69;;;12.28;100.00
24558;BME280;12726;49.148;8.582;2023-04-29T01:03:45;100066.97;;;12.26;100.00
24558;BME280;12726;49.148;8.582;2023-04-29T01:06:39;100066.22;;;12.19;100.00
24558;BME280;12726;49.148;8.582;2023-04-29T01:09:46;100058.84;;;12.14;100.00
24558;BME280;12726;49.148;8.582;2023-04-29T01:12:40;100063.44;;;12.25;100.00
24558;BME280;12726;49.148;8.582;2023-04-29T01:15:30;100065.69;;;12.28;100.00
24558;BME280;12726;49.148;8.582;2023-04-29T01:18:19;100071.66;;;12.30;100.00
24558;BME280;12726;49.148;8.582;2023-04-29T01:21:09;100071.53;;;12.25;100.00
24558;BME280;12726;49.148;8.582;2023-04-29T01:23:56;100072.22;;;12.21;100.00
24558;BME280;12726;49.148;8.582;2023-04-29T01:26:46;100068.84;;;12.25;100.00
24558;BME280;12726;49.148;8.582;2023-04-29T01:29:39;100064.84;;;12.28;100.00
24558;BME280;12726;49.148;8.582;2023-04-29T01:32:29;100069.88;;;12.24;100.00
24558;BME280;12726;49.148;8.582;2023-04-29T01:35:29;100078.09;;;12.29;100.00
24558;BME280;12726;49.148;8.582;2023-04-29T01:38:24;100078.91;;;12.30;100.00
24558;BME280;12726;49.148;8.582;2023-04-29T01:41:16;100071.75;;;12.24;100.00
24558;BME280;12726;49.148;8.582;2023-04-29T01:44:03;100070.59;;;12.20;100.00
24558;BME280;12726;49.148;8.582;2023-04-29T01:46:52;100067.41;;;12.23;100.00
24558;BME280;12726;49.148;8.582;2023-04-29T01:49:38;100064.47;;;12.24;100.00
24558;BME280;12726;49.148;8.582;2023-04-29T01:52:23;100066.72;;;12.27;100.00
24558;BME280;12726;49.148;8.582;2023-04-29T01:55:09;100066.50;;;12.29;100.00
24558;BME280;12726;49.148;8.582;2023-04-29T01:57:56;100065.19;;;12.31;100.00
24558;BME280;12726;49.148;8.582;2023-04-29T02:00:42;100070.81;;;12.30;100.00
24558;BME280;12726;49.148;8.582;2023-04-29T02:03:27;100070.00;;;12.29;100.00
24558;BME280;12726;49.148;8.582;2023-04-29T02:06:12;100071.41;;;12.32;100.00
24558;BME280;12726;49.148;8.582;2023-04-29T02:08:58;100072.47;;;12.31;100.00
24558;BME280;12726;49.148;8.582;2023-04-29T02:11:44;100082.94;;;12.27;100.00
24558;BME280;12726;49.148;8.582;2023-04-29T02:14:30;100086.06;;;12.24;100.00
24558;BME280;12726;49.148;8.582;2023-04-29T02:17:17;100078.19;;;12.23;100.00
24558;BME280;12726;49.148;8.582;2023-04-29T02:20:03;100080.31;;;12.21;100.00
24558;BME280;12726;49.148;8.582;2023-04-29T02:22:48;100084.41;;;12.23;100.00
24558;BME280;12726;49.148;8.582;2023-04-29T02:25:33;100073.41;;;12.25;100.00
24558;BME280;12726;49.148;8.582;2023-04-29T02:28:19;100084.81;;;12.27;100.00
24558;BME280;12726;49.148;8.582;2023-04-29T02:31:07;100090.19;;;12.27;100.00
24558;BME280;12726;49.148;8.582;2023-04-29T02:33:53;100096.19;;;12.29;100.00
24558;BME280;12726;49.148;8.582;2023-04-29T02:36:38;100087.63;;;12.32;100.00
24558;BME280;12726;49.148;8.582;2023-04-29T02:39:24;100100.16;;;12.26;100.00
24558;BME280;12726;49.148;8.582;2023-04-29T02:42:09;100096.53;;;12.21;100.00
24558;BME280;12726;49.148;8.582;2023-04-29T02:44:55;100094.88;;;12.20;100.00
24558;BME280;12726;49.148;8.582;2023-04-29T02:47:42;100098.41;;;12.20;100.00
24558;BME280;12726;49.148;8.582;2023-04-29T02:50:27;100102.16;;;12.19;100.00
24558;BME280;12726;49.148;8.582;2023-04-29T02:53:12;100102.38;;;12.18;100.00
24558;BME280;12726;49.148;8.582;2023-04-29T02:55:58;100099.66;;;12.18;100.00
24558;BME280;12726;49.148;8.582;2023-04-29T02:58:43;100098.41;;;12.20;100.00
24558;BME280;12726;49.148;8.582;2023-04-29T03:01:29;100101.66;;;12.22;100.00
24558;BME280;12726;49.148;8.582;2023-04-29T03:04:15;100105.19;;;12.23;100.00
24558;BME280;12726;49.148;8.582;2023-04-29T03:07:01;100106.38;;;12.27;100.00
24558;BME280;12726;49.148;8.582;2023-04-29T03:09:47;100103.47;;;12.28;100.00
24558;BME280;12726;49.148;8.582;2023-04-29T03:12:32;100101.94;;;12.32;100.00
24558;BME280;12726;49.148;8.582;2023-04-29T03:15:18;100099.78;;;12.23;100.00
24558;BME280;12726;49.148;8.582;2023-04-29T03:18:03;100110.47;;;12.29;100.00
24558;BME280;12726;49.148;8.582;2023-04-29T03:20:50;100117.19;;;12.27;100.00
24558;BME280;12726;49.148;8.582;2023-04-29T03:23:35;100113.44;;;12.28;100.00
24558;BME280;12726;49.148;8.582;2023-04-29T03:26:22;100109.31;;;12.25;100.00
24558;BME280;12726;49.148;8.582;2023-04-29T03:29:08;100116.38;;;12.26;100.00
24558;BME280;12726;49.148;8.582;2023-04-29T03:31:53;100111.31;;;12.30;100.00
24558;BME280;12726;49.148;8.582;2023-04-29T03:34:40;100116.25;;;12.21;100.00
24558;BME280;12726;49.148;8.582;2023-04-29T03:37:26;100109.63;;;12.17;100.00
24558;BME280;12726;49.148;8.582;2023-04-29T03:40:12;100107.75;;;12.06;100.00
24558;BME280;12726;49.148;8.582;2023-04-29T03:42:58;100108.66;;;12.00;100.00
24558;BME280;12726;49.148;8.582;2023-04-29T03:45:44;100118.13;;;11.91;100.00
24558;BME280;12726;49.148;8.582;2023-04-29T03:48:29;100115.72;;;11.83;100.00
24558;BME280;12726;49.148;8.582;2023-04-29T03:51:15;100118.50;;;11.76;100.00
24558;BME280;12726;49.148;8.582;2023-04-29T03:54:01;100113.38;;;11.68;100.00
24558;BME280;12726;49.148;8.582;2023-04-29T03:56:47;100121.94;;;11.65;100.00
24558;BME280;12726;49.148;8.582;2023-04-29T03:59:32;100127.09;;;11.66;100.00
24558;BME280;12726;49.148;8.582;2023-04-29T04:02:18;100127.47;;;11.70;100.00
24558;BME280;12726;49.148;8.582;2023-04-29T04:05:04;100123.56;;;11.66;100.00
24558;BME280;12726;49.148;8.582;2023-04-29T04:07:49;100129.44;;;11.63;100.00
24558;BME280;12726;49.148;8.582;2023-04-29T04:10:36;100134.22;;;11.61;100.00
24558;BME280;12726;49.148;8.582;2023-04-29T04:13:21;100139.00;;;11.59;100.00
24558;BME280;12726;49.148;8.582;2023-04-29T04:16:07;100148.75;;;11.60;100.00
24558;BME280;12726;49.148;8.582;2023-04-29T04:18:53;100148.53;;;11.61;100.00
24558;BME280;12726;49.148;8.582;2023-04-29T04:21:38;100156.53;;;11.68;100.00
24558;BME280;12726;49.148;8.582;2023-04-29T04:24:24;100151.97;;;11.68;100.00
24558;BME280;12726;49.148;8.582;2023-04-29T04:27:10;100160.66;;;11.70;100.00
24558;BME280;12726;49.148;8.582;2023-04-29T04:29:56;100162.16;;;11.66;100.00
24558;BME280;12726;49.148;8.582;2023-04-29T04:32:41;100166.13;;;11.64;100.00
24558;BME280;12726;49.148;8.582;2023-04-29T04:35:27;100165.97;;;11.59;100.00
24558;BME280;12726;49.148;8.582;2023-04-29T04:38:13;100172.25;;;11.53;100.00
24558;BME280;12726;49.148;8.582;2023-04-29T04:40:58;100168.38;;;11.49;100.00
24558;BME280;12726;49.148;8.582;2023-04-29T04:43:45;100177.94;;;11.45;100.00
24558;BME280;12726;49.148;8.582;2023-04-29T04:46:30;100174.88;;;11.41;100.00
24558;BME280;12726;49.148;8.582;2023-04-29T04:49:16;100184.84;;;11.41;100.00
24558;BME280;12726;49.148;8.582;2023-04-29T04:52:01;100180.13;;;11.36;100.00
24558;BME280;12726;49.148;8.582;2023-04-29T04:54:47;100189.84;;;11.37;100.00
24558;BME280;12726;49.148;8.582;2023-04-29T04:57:32;100184.69;;;11.35;100.00
24558;BME280;12726;49.148;8.582;2023-04-29T05:00:19;100200.19;;;11.40;100.00
24558;BME280;12726;49.148;8.582;2023-04-29T05:03:04;100204.13;;;11.37;100.00
24558;BME280;12726;49.148;8.582;2023-04-29T05:05:52;100212.41;;;11.43;100.00
24558;BME280;12726;49.148;8.582;2023-04-29T05:08:37;100221.41;;;11.55;100.00
24558;BME280;12726;49.148;8.582;2023-04-29T05:11:23;100222.59;;;11.59;100.00
24558;BME280;12726;49.148;8.582;2023-04-29T05:14:08;100224.41;;;11.65;100.00
24558;BME280;12726;49.148;8.582;2023-04-29T05:16:58;100238.94;;;11.64;100.00
24558;BME280;12726;49.148;8.582;2023-04-29T05:19:44;100225.81;;;11.67;100.00
24558;BME280;12726;49.148;8.582;2023-04-29T05:22:29;100225.13;;;11.79;100.00
24558;BME280;12726;49.148;8.582;2023-04-29T05:25:15;100232.53;;;11.83;100.00
24558;BME280;12726;49.148;8.582;2023-04-29T05:28:01;100238.47;;;11.92;100.00
24558;BME280;12726;49.148;8.582;2023-04-29T05:30:49;100237.56;;;11.98;100.00
24558;BME280;12726;49.148;8.582;2023-04-29T05:33:36;100242.88;;;12.04;100.00
24558;BME280;12726;49.148;8.582;2023-04-29T05:36:21;100241.75;;;12.12;100.00
24558;BME280;12726;49.148;8.582;2023-04-29T05:39:07;100238.00;;;12.13;100.00
24558;BME280;12726;49.148;8.582;2023-04-29T05:41:52;100243.91;;;12.22;100.00
24558;BME280;12726;49.148;8.582;2023-04-29T05:44:37;100249.13;;;12.35;100.00
24558;BME280;12726;49.148;8.582;2023-04-29T05:47:24;100248.66;;;12.38;100.00
24558;BME280;12726;49.148;8.582;2023-04-29T05:50:10;100247.09;;;12.30;100.00
24558;BME280;12726;49.148;8.582;2023-04-29T05:52:56;100258.63;;;12.37;100.00
24558;BME280;12726;49.148;8.582;2023-04-29T05:55:41;100264.88;;;12.38;100.00
24558;BME280;12726;49.148;8.582;2023-04-29T05:58:27;100274.16;;;12.42;100.00
24558;BME280;12726;49.148;8.582;2023-04-29T06:01:13;100274.25;;;12.35;100.00
24558;BME280;12726;49.148;8.582;2023-04-29T06:04:00;100274.25;;;12.35;100.00
24558;BME280;12726;49.148;8.582;2023-04-29T06:06:47;100279.06;;;12.33;100.00
24558;BME280;12726;49.148;8.582;2023-04-29T06:09:32;100285.38;;;12.27;100.00
24558;BME280;12726;49.148;8.582;2023-04-29T06:12:18;100284.31;;;12.28;100.00
24558;BME280;12726;49.148;8.582;2023-04-29T06:15:04;100285.63;;;12.37;100.00
24558;BME280;12726;49.148;8.582;2023-04-29T06:17:49;100290.94;;;12.44;100.00
24558;BME280;12726;49.148;8.582;2023-04-29T06:20:35;100290.84;;;12.50;100.00
24558;BME280;12726;49.148;8.582;2023-04-29T06:23:22;100300.03;;;12.49;100.00
24558;BME280;12726;49.148;8.582;2023-04-29T06:26:07;100298.91;;;12.57;100.00
24558;BME280;12726;49.148;8.582;2023-04-29T06:28:52;100309.00;;;12.62;100.00
24558;BME280;12726;49.148;8.582;2023-04-29T06:31:38;100300.22;;;12.66;100.00
24558;BME280;12726;49.148;8.582;2023-04-29T06:34:23;100308.38;;;12.78;100.00
24558;BME280;12726;49.148;8.582;2023-04-29T06:37:09;100310.25;;;12.77;100.00
24558;BME280;12726;49.148;8.582;2023-04-29T06:39:56;100308.38;;;12.78;100.00
24558;BME280;12726;49.148;8.582;2023-04-29T06:42:41;100321.50;;;12.74;100.00
24558;BME280;12726;49.148;8.582;2023-04-29T06:45:27;100320.03;;;12.90;100.00
24558;BME280;12726;49.148;8.582;2023-04-29T06:48:12;100327.34;;;13.01;100.00
24558;BME280;12726;49.148;8.582;2023-04-29T06:50:58;100322.56;;;13.03;100.00
24558;BME280;12726;49.148;8.582;2023-04-29T06:53:43;100327.03;;;13.09;100.00
24558;BME280;12726;49.148;8.582;2023-04-29T06:56:31;100326.22;;;13.09;100.00
24558;BME280;12726;49.148;8.582;2023-04-29T06:59:16;100338.53;;;13.05;100.00
24558;BME280;12726;49.148;8.582;2023-04-29T07:02:01;100333.84;;;13.00;100.00
24558;BME280;12726;49.148;8.582;2023-04-29T07:04:47;100341.47;;;13.03;100.00
24558;BME280;12726;49.148;8.582;2023-04-29T07:07:33;100337.28;;;13.07;100.00
24558;BME280;12726;49.148;8.582;2023-04-29T07:10:18;100345.13;;;13.09;100.00
24558;BME280;12726;49.148;8.582;2023-04-29T07:13:05;100347.19;;;13.13;100.00
24558;BME280;12726;49.148;8.582;2023-04-29T07:15:50;100353.44;;;13.14;100.00
24558;BME280;12726;49.148;8.582;2023-04-29T07:18:35;100359.66;;;13.14;100.00
24558;BME280;12726;49.148;8.582;2023-04-29T07:21:20;100365.47;;;13.11;100.00
24558;BME280;12726;49.148;8.582;2023-04-29T07:24:06;100367.75;;;13.14;100.00
24558;BME280;12726;49.148;8.582;2023-04-29T07:26:51;100373.41;;;13.13;100.00
24558;BME280;12726;49.148;8.582;2023-04-29T07:29:38;100373.19;;;13.26;100.00
24558;BME280;12726;49.148;8.582;2023-04-29T07:32:24;100375.81;;;13.32;100.00
24558;BME280;12726;49.148;8.582;2023-04-29T07:35:09;100375.56;;;13.34;100.00
24558;BME280;12726;49.148;8.582;2023-04-29T07:37:55;100384.75;;;13.33;100.00
24558;BME280;12726;49.148;8.582;2023-04-29T07:40:40;100386.84;;;13.31;98.77
24558;BME280;12726;49.148;8.582;2023-04-29T07:43:26;100384.00;;;13.26;98.47
24558;BME280;12726;49.148;8.582;2023-04-29T07:46:12;100389.88;;;13.23;99.08
24558;BME280;12726;49.148;8.582;2023-04-29T07:48:59;100388.38;;;13.27;98.54
24558;BME280;12726;49.148;8.582;2023-04-29T07:51:44;100400.06;;;13.51;98.69
24558;BME280;12726;49.148;8.582;2023-04-29T07:54:30;100396.69;;;13.79;97.53
24558;BME280;12726;49.148;8.582;2023-04-29T07:57:15;100386.38;;;14.10;95.98
24558;BME280;12726;49.148;8.582;2023-04-29T08:00:00;100392.94;;;14.26;96.92
24558;BME280;12726;49.148;8.582;2023-04-29T08:02:49;100401.31;;;14.25;94.96
24558;BME280;12726;49.148;8.582;2023-04-29T08:05:35;100399.31;;;14.43;90.32
24558;BME280;12726;49.148;8.582;2023-04-29T08:08:20;100403.66;;;14.56;90.12
24558;BME280;12726;49.148;8.582;2023-04-29T08:11:06;100400.31;;;14.66;89.79
24558;BME280;12726;49.148;8.582;2023-04-29T08:13:51;100403.06;;;14.94;89.75
24558;BME280;12726;49.148;8.582;2023-04-29T08:16:37;100399.09;;;15.13;87.41
24558;BME280;12726;49.148;8.582;2023-04-29T08:19:24;100408.59;;;15.27;86.56
24558;BME280;12726;49.148;8.582;2023-04-29T08:22:09;100406.00;;;15.33;86.85
24558;BME280;12726;49.148;8.582;2023-04-29T08:24:57;100414.53;;;15.24;84.02
24558;BME280;12726;49.148;8.582;2023-04-29T08:27:42;100414.13;;;15.33;84.36
24558;BME280;12726;49.148;8.582;2023-04-29T08:30:29;100398.53;;;15.40;85.17
24558;BME280;12726;49.148;8.582;2023-04-29T08:33:14;100410.75;;;15.54;85.24
24558;BME280;12726;49.148;8.582;2023-04-29T08:36:01;100406.97;;;15.43;83.42
24558;BME280;12726;49.148;8.582;2023-04-29T08:38:47;100414.28;;;15.54;84.61
24558;BME280;12726;49.148;8.582;2023-04-29T08:41:36;100413.47;;;15.54;85.50
24558;BME280;12726;49.148;8.582;2023-04-29T08:44:21;100415.44;;;15.75;84.00
24558;BME280;12726;49.148;8.582;2023-04-29T08:47:07;100417.50;;;15.85;81.01
24558;BME280;12726;49.148;8.582;2023-04-29T08:49:53;100411.66;;;15.76;80.23
24558;BME280;12726;49.148;8.582;2023-04-29T08:52:39;100422.75;;;15.58;82.02
24558;BME280;12726;49.148;8.582;2023-04-29T08:55:25;100416.63;;;15.51;80.18
24558;BME280;12726;49.148;8.582;2023-04-29T08:58:11;100413.97;;;15.68;82.13
24558;BME280;12726;49.148;8.582;2023-04-29T09:00:57;100414.63;;;15.91;83.03
24558;BME280;12726;49.148;8.582;2023-04-29T09:03:51;100424.16;;;15.94;80.42
24558;BME280;12726;49.148;8.582;2023-04-29T09:06:38;100432.56;;;15.76;81.97
24558;BME280;12726;49.148;8.582;2023-04-29T09:09:25;100439.13;;;15.63;82.34
24558;BME280;12726;49.148;8.582;2023-04-29T09:12:10;100431.31;;;15.38;78.29
24558;BME280;12726;49.148;8.582;2023-04-29T09:14:55;100427.69;;;15.04;79.30
24558;BME280;12726;49.148;8.582;2023-04-29T09:17:42;100428.72;;;14.75;80.82
24558;BME280;12726;49.148;8.582;2023-04-29T09:20:29;100434.78;;;14.42;82.66
24558;BME280;12726;49.148;8.582;2023-04-29T09:23:14;100444.53;;;14.20;85.16
24558;BME280;12726;49.148;8.582;2023-04-29T09:26:01;100454.50;;;13.96;86.66
24558;BME280;12726;49.148;8.582;2023-04-29T09:28:47;100444.34;;;13.80;87.25
24558;BME280;12726;49.148;8.582;2023-04-29T09:31:32;100441.63;;;13.68;87.75
24558;BME280;12726;49.148;8.582;2023-04-29T09:34:29;100446.31;;;13.61;88.91
24558;BME280;12726;49.148;8.582;2023-04-29T09:37:23;100451.91;;;13.48;87.46
24558;BME280;12726;49.148;8.582;2023-04-29T09:40:26;100455.66;;;13.35;88.03
24558;BME280;12726;49.148;8.582;2023-04-29T09:43:15;100456.09;;;13.32;87.99
24558;BME280;12726;49.148;8.582;2023-04-29T09:46:01;100465.47;;;13.29;87.13
24558;BME280;12726;49.148;8.582;2023-04-29T09:48:46;100462.78;;;13.29;89.07
24558;BME280;12726;49.148;8.582;2023-04-29T09:51:31;100461.63;;;13.37;88.51
24558;BME280;12726;49.148;8.582;2023-04-29T09:54:19;100463.19;;;13.45;89.41
24558;BME280;12726;49.148;8.582;2023-04-29T09:57:06;100474.72;;;13.52;88.40
24558;BME280;12726;49.148;8.582;2023-04-29T09:59:53;100474.00;;;13.45;88.48
24558;BME280;12726;49.148;8.582;2023-04-29T10:02:40;100478.38;;;13.46;88.31
24558;BME280;12726;49.148;8.582;2023-04-29T10:05:27;100469.91;;;13.42;87.04
24558;BME280;12726;49.148;8.582;2023-04-29T10:08:13;100467.50;;;13.34;86.76
24558;BME280;12726;49.148;8.582;2023-04-29T10:10:59;100468.44;;;13.28;88.31
24558;BME280;12726;49.148;8.582;2023-04-29T10:13:46;100480.66;;;13.30;87.56
24558;BME280;12726;49.148;8.582;2023-04-29T10:16:38;100470.44;;;13.32;87.42
24558;BME280;12726;49.148;8.582;2023-04-29T10:19:26;100468.34;;;13.35;86.97
24558;BME280;12726;49.148;8.582;2023-04-29T10:22:22;100475.53;;;13.41;87.35
24558;BME280;12726;49.148;8.582;2023-04-29T10:25:11;100479.41;;;13.45;86.98
24558;BME280;12726;49.148;8.582;2023-04-29T10:27:59;100473.56;;;13.48;85.97
24558;BME280;12726;49.148;8.582;2023-04-29T10:30:50;100485.66;;;13.45;84.41
24558;BME280;12726;49.148;8.582;2023-04-29T10:33:39;100471.06;;;13.46;84.10
24558;BME280;12726;49.148;8.582;2023-04-29T10:36:27;100471.31;;;13.45;82.90
24558;BME280;12726;49.148;8.582;2023-04-29T10:39:20;100478.03;;;13.54;82.62
24558;BME280;12726;49.148;8.582;2023-04-29T10:42:16;100471.72;;;13.60;82.39
24558;BME280;12726;49.148;8.582;2023-04-29T10:45:20;100467.34;;;13.59;82.65
24558;BME280;12726;49.148;8.582;2023-04-29T10:48:13;100470.28;;;13.57;82.07
24558;BME280;12726;49.148;8.582;2023-04-29T10:51:00;100473.50;;;13.66;82.24
24558;BME280;12726;49.148;8.582;2023-04-29T10:54:05;100470.88;;;13.59;82.20
24558;BME280;12726;49.148;8.582;2023-04-29T10:56:52;100470.56;;;13.67;81.73
24558;BME280;12726;49.148;8.582;2023-04-29T10:59:44;100470.78;;;13.66;81.31
24558;BME280;12726;49.148;8.582;2023-04-29T11:02:30;100476.28;;;13.59;81.42
24558;BME280;12726;49.148;8.582;2023-04-29T11:05:28;100476.16;;;13.54;81.15
24558;BME280;12726;49.148;8.582;2023-04-29T11:08:19;100472.25;;;13.50;81.39
24558;BME280;12726;49.148;8.582;2023-04-29T11:11:07;100470.84;;;13.48;82.35
24558;BME280;12726;49.148;8.582;2023-04-29T11:13:52;100462.88;;;13.53;81.68
24558;BME280;12726;49.148;8.582;2023-04-29T11:16:37;100469.72;;;13.55;81.77
24558;BME280;12726;49.148;8.582;2023-04-29T11:19:32;100461.00;;;13.53;80.68
24558;BME280;12726;49.148;8.582;2023-04-29T11:22:25;100457.72;;;13.63;81.11
24558;BME280;12726;49.148;8.582;2023-04-29T11:25:11;100458.94;;;13.79;81.09
24558;BME280;12726;49.148;8.582;2023-04-29T11:27:58;100461.56;;;13.97;79.04
24558;BME280;12726;49.148;8.582;2023-04-29T11:30:45;100456.03;;;14.15;79.32
24558;BME280;12726;49.148;8.582;2023-04-29T11:33:31;100457.59;;;14.34;78.20
24558;BME280;12726;49.148;8.582;2023-04-29T11:36:17;100454.19;;;14.62;76.78
24558;BME280;12726;49.148;8.582;2023-04-29T11:39:03;100454.25;;;14.91;76.53
24558;BME280;12726;49.148;8.582;2023-04-29T11:41:50;100447.81;;;15.08;75.98
24558;BME280;12726;49.148;8.582;2023-04-29T11:44:35;100462.28;;;15.25;71.29
24558;BME280;12726;49.148;8.582;2023-04-29T11:47:25;100459.13;;;15.17;72.29
24558;BME280;12726;49.148;8.582;2023-04-29T11:50:11;100464.25;;;15.30;71.60
24558;BME280;12726;49.148;8.582;2023-04-29T11:52:59;100465.69;;;15.21;72.19
24558;BME280;12726;49.148;8.582;2023-04-29T11:55:44;100468.66;;;15.19;70.07
24558;BME280;12726;49.148;8.582;2023-04-29T11:58:31;100465.50;;;15.11;71.13
24558;BME280;12726;49.148;8.582;2023-04-29T12:01:18;100472.97;;;15.04;70.21
24558;BME280;12726;49.148;8.582;2023-04-29T12:04:04;100474.63;;;14.93;71.77
24558;BME280;12726;49.148;8.582;2023-04-29T12:06:50;100466.84;;;14.85;72.26
24558;BME280;12726;49.148;8.582;2023-04-29T12:09:40;100466.84;;;14.85;72.77
24558;BME280;12726;49.148;8.582;2023-04-29T12:12:26;100463.56;;;14.83;73.78
24558;BME280;12726;49.148;8.582;2023-04-29T12:15:15;100469.69;;;14.90;72.98
24558;BME280;12726;49.148;8.582;2023-04-29T12:18:01;100470.84;;;14.94;72.91
24558;BME280;12726;49.148;8.582;2023-04-29T12:20:46;100475.63;;;15.15;71.57
24558;BME280;12726;49.148;8.582;2023-04-29T12:23:34;100469.22;;;15.21;70.62
24558;BME280;12726;49.148;8.582;2023-04-29T12:26:20;100475.19;;;15.35;70.28
24558;BME280;12726;49.148;8.582;2023-04-29T12:29:09;100477.59;;;15.32;70.45
24558;BME280;12726;49.148;8.582;2023-04-29T12:31:56;100473.91;;;15.38;71.39
24558;BME280;12726;49.148;8.582;2023-04-29T12:34:41;100482.13;;;15.43;71.56
24558;BME280;12726;49.148;8.582;2023-04-29T12:37:27;100482.38;;;15.41;69.61
24558;BME280;12726;49.148;8.582;2023-04-29T12:40:12;100480.81;;;15.45;67.50
24558;BME280;12726;49.148;8.582;2023-04-29T12:43:06;100477.13;;;15.51;68.46
24558;BME280;12726;49.148;8.582;2023-04-29T12:45:53;100482.25;;;15.48;68.78
24558;BME280;12726;49.148;8.582;2023-04-29T12:48:40;100474.66;;;15.50;69.39
24558;BME280;12726;49.148;8.582;2023-04-29T12:51:26;100484.50;;;15.39;69.61
24558;BME280;12726;49.148;8.582;2023-04-29T12:54:12;100491.44;;;15.47;69.97
24558;BME280;12726;49.148;8.582;2023-04-29T12:56:57;100486.41;;;15.39;69.52
24558;BME280;12726;49.148;8.582;2023-04-29T12:59:43;100486.19;;;15.28;69.84
24558;BME280;12726;49.148;8.582;2023-04-29T13:02:28;100491.88;;;15.27;70.49
24558;BME280;12726;49.148;8.582;2023-04-29T13:05:15;100489.25;;;15.32;71.80
24558;BME280;12726;49.148;8.582;2023-04-29T13:08:00;100497.16;;;15.34;72.08
24558;BME280;12726;49.148;8.582;2023-04-29T13:10:46;100504.34;;;15.28;71.32
24558;BME280;12726;49.148;8.582;2023-04-29T13:13:31;100500.81;;;15.27;71.59
24558;BME280;12726;49.148;8.582;2023-04-29T13:16:16;100502.16;;;15.42;70.13
24558;BME280;12726;49.148;8.582;2023-04-29T13:19:02;100500.06;;;15.44;71.09
24558;BME280;12726;49.148;8.582;2023-04-29T13:21:48;100498.53;;;15.48;70.87
24558;BME280;12726;49.148;8.582;2023-04-29T13:24:34;100502.06;;;15.48;70.63
24558;BME280;12726;49.148;8.582;2023-04-29T13:27:19;100501.78;;;15.50;71.03
24558;BME280;12726;49.148;8.582;2023-04-29T13:30:06;100503.34;;;15.46;71.01
24558;BME280;12726;49.148;8.582;2023-04-29T13:32:51;100493.31;;;15.58;70.46
24558;BME280;12726;49.148;8.582;2023-04-29T13:35:37;100502.03;;;15.60;70.09
24558;BME280;12726;49.148;8.582;2023-04-29T13:38:24;100498.25;;;15.61;70.21
24558;BME280;12726;49.148;8.582;2023-04-29T13:41:10;100512.28;;;15.58;70.35
24558;BME280;12726;49.148;8.582;2023-04-29T13:43:56;100512.91;;;15.48;69.47
24558;BME280;12726;49.148;8.582;2023-04-29T13:46:41;100508.47;;;15.31;69.71
24558;BME280;12726;49.148;8.582;2023-04-29T13:49:26;100511.09;;;15.25;69.92
24558;BME280;12726;49.148;8.582;2023-04-29T13:52:12;100522.78;;;15.26;69.19
24558;BME280;12726;49.148;8.582;2023-04-29T13:54:58;100516.53;;;15.25;69.69
24558;BME280;12726;49.148;8.582;2023-04-29T13:57:43;100520.97;;;15.32;69.88
24558;BME280;12726;49.148;8.582;2023-04-29T14:00:29;100520.47;;;15.46;70.69
24558;BME280;12726;49.148;8.582;2023-04-29T14:03:14;100519.06;;;15.55;70.60
24558;BME280;12726;49.148;8.582;2023-04-29T14:06:01;100521.03;;;15.60;69.64
24558;BME280;12726;49.148;8.582;2023-04-29T14:08:46;100525.03;;;15.57;68.59
24558;BME280;12726;49.148;8.582;2023-04-29T14:11:33;100516.34;;;15.72;68.93
24558;BME280;12726;49.148;8.582;2023-04-29T14:14:19;100516.94;;;15.74;68.41
24558;BME280;12726;49.148;8.582;2023-04-29T14:17:05;100522.53;;;15.68;68.28
24558;BME280;12726;49.148;8.582;2023-04-29T14:19:50;100525.63;;;15.59;68.50
24558;BME280;12726;49.148;8.582;2023-04-29T14:22:36;100523.59;;;15.66;68.01
24558;BME280;12726;49.148;8.582;2023-04-29T14:25:21;100519.59;;;15.57;69.74